createdAt,value
2022-08-20T00:00:31.434Z,17.80
2022-08-20T00:05:39.377Z,17.81
2022-08-20T00:10:49.046Z,17.82
2022-08-20T00:16:01.164Z,17.82
2022-08-20T00:21:08.569Z,17.79
2022-08-20T00:26:13.885Z,17.79
2022-08-20T00:31:23.084Z,17.76
2022-08-20T00:36:32.268Z,17.74
2022-08-20T00:41:46.293Z,17.71
2022-08-20T00:46:55.412Z,17.64
2022-08-20T00:52:04.744Z,17.61
2022-08-20T00:57:13.773Z,17.57
2022-08-20T01:02:25.476Z,17.53
2022-08-20T01:07:34.898Z,17.50
2022-08-20T01:12:42.184Z,17.47
2022-08-20T01:17:58.619Z,17.41
2022-08-20T01:23:21.750Z,17.38
2022-08-20T01:28:34.356Z,17.37
2022-08-20T01:33:39.726Z,17.37
2022-08-20T01:38:50.215Z,17.36
2022-08-20T01:44:02.334Z,17.34
2022-08-20T01:49:12.397Z,17.33
2022-08-20T01:54:18.703Z,17.23
2022-08-20T01:59:26.132Z,17.22
2022-08-20T02:04:31.344Z,17.17
2022-08-20T02:09:39.307Z,17.18
2022-08-20T02:14:51.322Z,17.13
2022-08-20T02:19:59.834Z,17.04
2022-08-20T02:25:04.718Z,17.00
2022-08-20T02:30:21.234Z,16.96
2022-08-20T02:35:33.880Z,16.94
2022-08-20T02:40:39.149Z,16.93
2022-08-20T02:45:46.474Z,16.93
2022-08-20T02:50:54.366Z,16.93
2022-08-20T02:55:59.441Z,16.89
2022-08-20T03:01:12.294Z,16.91
2022-08-20T03:06:17.796Z,16.91
2022-08-20T03:11:22.433Z,16.94
2022-08-20T03:16:30.462Z,16.96
2022-08-20T03:21:37.342Z,16.98
2022-08-20T03:26:42.046Z,17.00
2022-08-20T03:31:49.741Z,17.02
2022-08-20T03:36:54.342Z,17.03
2022-08-20T03:41:59.130Z,17.04
2022-08-20T03:47:09.404Z,17.05
2022-08-20T03:52:14.446Z,17.06
2022-08-20T03:57:19.432Z,17.04
2022-08-20T04:02:28.381Z,17.04
2022-08-20T04:07:32.953Z,17.03
2022-08-20T04:12:41.991Z,16.99
2022-08-20T04:17:58.919Z,17.00
2022-08-20T04:23:03.690Z,17.00
2022-08-20T04:28:11.454Z,17.01
2022-08-20T04:33:34.159Z,17.03
2022-08-20T04:38:50.449Z,17.03
2022-08-20T04:43:58.230Z,17.05
2022-08-20T04:49:05.696Z,17.05
2022-08-20T04:54:10.265Z,17.06
2022-08-20T04:59:15.173Z,17.08
2022-08-20T05:04:22.577Z,17.10
2022-08-20T05:09:27.097Z,17.09
2022-08-20T05:14:31.592Z,17.07
2022-08-20T05:19:40.532Z,17.10
2022-08-20T05:24:45.322Z,17.11
2022-08-20T05:29:50.324Z,17.12
2022-08-20T05:35:00.622Z,17.14
2022-08-20T05:40:10.516Z,17.15
2022-08-20T05:45:17.193Z,17.17
2022-08-20T05:50:24.430Z,17.13
2022-08-20T05:55:29.166Z,17.18
2022-08-20T06:00:35.447Z,17.18
2022-08-20T06:05:43.021Z,17.22
2022-08-20T06:10:48.139Z,17.23
2022-08-20T06:15:55.993Z,17.24
2022-08-20T06:21:03.130Z,17.31
2022-08-20T06:26:09.356Z,17.32
2022-08-20T06:31:14.156Z,17.37
2022-08-20T06:36:21.670Z,17.42
2022-08-20T06:41:35.699Z,17.51
2022-08-20T06:46:41.326Z,17.62
2022-08-20T06:51:50.046Z,17.73
2022-08-20T06:56:57.146Z,17.83
2022-08-20T07:02:01.822Z,17.88
2022-08-20T07:07:08.990Z,17.94
2022-08-20T07:12:13.582Z,18.02
2022-08-20T07:17:18.132Z,18.08
2022-08-20T07:22:25.369Z,18.17
2022-08-20T07:27:30.157Z,18.23
2022-08-20T07:32:39.378Z,18.33
2022-08-20T07:37:50.153Z,18.39
2022-08-20T07:42:55.368Z,18.48
2022-08-20T07:48:10.242Z,18.58
2022-08-20T07:53:18.031Z,18.67
2022-08-20T07:58:27.646Z,18.72
2022-08-20T08:03:40.932Z,18.81
2022-08-20T08:08:57.559Z,18.89
2022-08-20T08:14:02.814Z,19.00
2022-08-20T08:19:12.240Z,19.13
2022-08-20T08:24:24.300Z,19.22
2022-08-20T08:29:31.331Z,19.33
2022-08-20T08:34:39.316Z,19.43
2022-08-20T08:39:46.474Z,19.52
2022-08-20T08:44:51.150Z,19.63
2022-08-20T08:49:56.960Z,19.75
2022-08-20T08:55:06.890Z,19.76
2022-08-20T09:00:16.542Z,19.80
2022-08-20T09:05:24.440Z,19.89
2022-08-20T09:10:31.758Z,19.97
2022-08-20T09:15:36.833Z,19.92
2022-08-20T09:20:41.435Z,19.98
2022-08-20T09:25:48.714Z,20.00
2022-08-20T09:30:53.349Z,20.02
2022-08-20T09:35:57.864Z,20.13
2022-08-20T09:41:05.182Z,20.21
2022-08-20T09:46:09.789Z,20.36
2022-08-20T09:51:14.506Z,20.45
2022-08-20T09:56:21.816Z,20.48
2022-08-20T10:01:26.479Z,20.62
2022-08-20T10:06:35.792Z,20.64
2022-08-20T10:11:44.944Z,20.72
2022-08-20T10:16:49.577Z,20.85
2022-08-20T10:21:55.326Z,20.99
2022-08-20T10:27:03.855Z,20.99
2022-08-20T10:32:14.770Z,21.05
2022-08-20T10:37:21.646Z,21.11
2022-08-20T10:42:28.767Z,21.18
2022-08-20T10:47:35.480Z,21.21
2022-08-20T10:52:40.429Z,21.31
2022-08-20T10:57:48.020Z,21.43
2022-08-20T11:02:52.565Z,21.64
2022-08-20T11:07:57.937Z,21.78
2022-08-20T11:13:06.159Z,21.83
2022-08-20T11:18:13.119Z,21.95
2022-08-20T11:23:17.686Z,22.03
2022-08-20T11:28:31.810Z,22.08
2022-08-20T11:33:36.712Z,22.21
2022-08-20T11:38:41.606Z,22.17
2022-08-20T11:44:10.377Z,22.13
2022-08-20T11:49:13.553Z,21.98
2022-08-20T11:54:18.173Z,22.13
2022-08-20T11:59:25.510Z,22.26
2022-08-20T12:04:30.186Z,22.31
2022-08-20T12:09:40.097Z,22.31
2022-08-20T12:14:58.608Z,22.51
2022-08-20T12:20:05.540Z,22.51
2022-08-20T12:25:11.627Z,22.61
2022-08-20T12:30:21.175Z,22.71
2022-08-20T12:35:25.893Z,22.86
2022-08-20T12:40:36.878Z,22.86
2022-08-20T12:45:44.102Z,22.96
2022-08-20T12:50:50.291Z,22.87
2022-08-20T12:55:55.094Z,23.03
2022-08-20T13:01:02.473Z,23.11
2022-08-20T13:06:08.578Z,23.23
2022-08-20T13:11:13.932Z,23.30
2022-08-20T13:16:22.363Z,23.44
2022-08-20T13:21:29.981Z,23.50
2022-08-20T13:26:35.910Z,23.63
2022-08-20T13:31:45.272Z,23.77
2022-08-20T13:36:49.962Z,23.74
2022-08-20T13:41:54.909Z,23.70
2022-08-20T13:47:02.378Z,23.78
2022-08-20T13:52:07.290Z,23.81
2022-08-20T13:57:19.123Z,23.83
2022-08-20T14:02:27.209Z,23.93
2022-08-20T14:07:33.425Z,23.88
2022-08-20T14:12:38.177Z,23.80
2022-08-20T14:17:52.242Z,23.59
2022-08-20T14:22:57.250Z,23.58
2022-08-20T14:28:11.409Z,23.49
2022-08-20T14:33:19.160Z,23.31
2022-08-20T14:38:24.275Z,23.33
2022-08-20T14:43:29.232Z,23.42
2022-08-20T14:48:36.545Z,23.34
2022-08-20T14:53:41.323Z,23.49
2022-08-20T14:58:45.960Z,23.54
2022-08-20T15:03:53.748Z,23.61
2022-08-20T15:08:59.482Z,23.68
2022-08-20T15:14:04.681Z,23.81
2022-08-20T15:19:11.983Z,23.93
2022-08-20T15:24:20.592Z,24.02
2022-08-20T15:29:25.508Z,24.12
2022-08-20T15:34:32.820Z,24.15
2022-08-20T15:39:37.638Z,24.15
2022-08-20T15:44:43.300Z,24.23
2022-08-20T15:49:51.987Z,24.29
2022-08-20T15:54:56.745Z,24.29
2022-08-20T16:00:13.094Z,24.26
2022-08-20T16:05:26.024Z,24.17
2022-08-20T16:10:35.697Z,24.09
2022-08-20T16:15:49.402Z,24.01
2022-08-20T16:21:03.092Z,23.90
2022-08-20T16:26:19.145Z,23.88
2022-08-20T16:31:27.134Z,23.90
2022-08-20T16:36:40.178Z,23.89
2022-08-20T16:41:47.888Z,23.90
2022-08-20T16:46:57.887Z,23.99
2022-08-20T16:52:23.768Z,24.03
2022-08-20T16:57:29.941Z,23.98
2022-08-20T17:02:34.701Z,23.88
2022-08-20T17:07:50.689Z,23.44
2022-08-20T17:13:00.031Z,23.13
2022-08-20T17:18:22.364Z,22.75
2022-08-20T17:23:29.936Z,22.74
2022-08-20T17:28:35.567Z,22.55
2022-08-20T17:33:42.551Z,22.34
2022-08-20T17:38:54.441Z,22.25
2022-08-20T17:44:01.103Z,22.23
2022-08-20T17:49:11.053Z,22.25
2022-08-20T17:54:51.446Z,22.19
2022-08-20T18:00:09.315Z,22.20
2022-08-20T18:05:24.206Z,22.15
2022-08-20T18:10:38.322Z,22.12
2022-08-20T18:15:51.307Z,22.11
2022-08-20T18:21:23.666Z,21.95
2022-08-20T18:26:34.964Z,21.85
2022-08-20T18:31:48.891Z,21.84
2022-08-20T18:36:58.107Z,21.83
2022-08-20T18:42:09.252Z,21.73
2022-08-20T18:47:23.644Z,21.63
2022-08-20T18:52:30.673Z,21.56
2022-08-20T18:57:42.816Z,21.46
2022-08-20T19:02:58.195Z,21.33
2022-08-20T19:08:06.485Z,21.23
2022-08-20T19:13:29.873Z,21.17
2022-08-20T19:18:43.457Z,21.05
2022-08-20T19:23:52.159Z,20.97
2022-08-20T19:29:03.564Z,20.87
2022-08-20T19:34:22.031Z,20.79
2022-08-20T19:39:29.847Z,20.72
2022-08-20T19:44:45.545Z,20.68
2022-08-20T19:50:00.592Z,20.60
2022-08-20T19:55:05.299Z,20.35
2022-08-20T20:00:14.931Z,20.28
2022-08-20T20:05:20.343Z,20.27
2022-08-20T20:10:32.773Z,20.20
2022-08-20T20:15:41.789Z,20.15
2022-08-20T20:20:57.850Z,20.09
2022-08-20T20:26:07.724Z,19.95
2022-08-20T20:31:17.210Z,19.81
2022-08-20T20:36:35.441Z,19.67
2022-08-20T20:41:40.459Z,19.55
2022-08-20T20:46:49.877Z,19.49
2022-08-20T20:51:59.703Z,19.48
2022-08-20T20:57:08.144Z,19.47
2022-08-20T21:02:15.508Z,19.46
2022-08-20T21:07:25.455Z,19.42
2022-08-20T21:12:30.212Z,19.33
2022-08-20T21:17:38.709Z,19.26
2022-08-20T21:22:45.611Z,19.12
2022-08-20T21:27:51.984Z,18.96
2022-08-20T21:32:59.755Z,18.86
2022-08-20T21:38:04.494Z,18.73
2022-08-20T21:43:10.246Z,18.62
2022-08-20T21:48:17.703Z,18.54
2022-08-20T21:53:22.393Z,18.47
2022-08-20T21:58:26.971Z,18.47
2022-08-20T22:03:38.598Z,18.52
2022-08-20T22:08:44.096Z,18.53
2022-08-20T22:13:49.124Z,18.57
2022-08-20T22:18:58.643Z,18.61
2022-08-20T22:24:05.785Z,18.62
2022-08-20T22:29:12.761Z,18.63
2022-08-20T22:34:22.596Z,18.53
2022-08-20T22:39:32.838Z,18.46
2022-08-20T22:44:43.515Z,18.35
2022-08-20T22:49:56.492Z,18.24
2022-08-20T22:55:01.194Z,18.17
2022-08-20T23:00:17.837Z,18.16
2022-08-20T23:05:27.594Z,18.06
2022-08-20T23:10:40.818Z,17.96
2022-08-20T23:15:45.927Z,17.87
2022-08-20T23:20:58.765Z,17.80
2022-08-20T23:26:07.162Z,17.76
2022-08-20T23:31:11.855Z,17.77
2022-08-20T23:36:23.707Z,17.76
2022-08-20T23:41:28.744Z,17.73
2022-08-20T23:46:36.395Z,17.75
2022-08-20T23:51:44.204Z,17.72
2022-08-20T23:56:49.467Z,17.71
